Time;durP1;ratioP1;P1;durP2;ratioP2;P2;SDS_P1;SDS_P2;PMS_P1;PMS_P2;Temp;Humidity;BMP_temperature;BMP_pressure;BME280_temperature;BME280_humidity;BME280_pressure;Samples;Min_cycle;Max_cycle;Signal;HPM_P1;HPM_P2
2021/08/28 00:01:02;;;;;;;18.23;5.90;;;14.20;99.90;;;;;;5019324;28;20029;-67
2021/08/28 00:03:28;;;;;;;14.65;4.78;;;14.20;99.90;;;;;;5021397;28;20057;-67
2021/08/28 00:05:54;;;;;;;20.90;6.22;;;14.20;99.90;;;;;;5019717;28;20053;-65
2021/08/28 00:08:19;;;;;;;23.10;5.90;;;14.20;99.90;;;;;;5021321;28;20051;-66
2021/08/28 00:10:46;;;;;;;18.40;6.15;;;14.20;99.90;;;;;;5014733;28;20056;-64
2021/08/28 00:13:13;;;;;;;21.95;6.30;;;14.20;99.90;;;;;;5016331;28;20033;-66
2021/08/28 00:15:39;;;;;;;16.83;5.22;;;14.10;99.90;;;;;;5018939;28;20477;-67
2021/08/28 00:18:05;;;;;;;21.08;6.60;;;14.10;99.90;;;;;;5020954;28;20488;-66
2021/08/28 00:20:31;;;;;;;15.68;5.72;;;14.10;99.90;;;;;;5013307;28;20289;-67
2021/08/28 00:22:57;;;;;;;19.05;6.22;;;14.10;99.90;;;;;;5017113;28;20033;-67
2021/08/28 00:25:22;;;;;;;22.38;7.55;;;14.10;99.90;;;;;;5019977;28;20037;-66
2021/08/28 00:27:48;;;;;;;31.00;7.35;;;14.20;99.90;;;;;;5018562;28;20034;-66
2021/08/28 00:30:14;;;;;;;21.85;7.18;;;14.20;99.90;;;;;;5015878;28;20026;-67
2021/08/28 00:32:40;;;;;;;24.38;7.03;;;14.20;99.90;;;;;;5016031;28;20036;-68
2021/08/28 00:35:07;;;;;;;25.60;6.55;;;14.20;99.90;;;;;;5020081;28;20401;-67
2021/08/28 00:37:32;;;;;;;18.00;6.38;;;14.20;99.90;;;;;;5020590;28;20485;-67
2021/08/28 00:39:58;;;;;;;17.83;7.65;;;14.20;99.90;;;;;;5017318;28;20037;-67
2021/08/28 00:42:24;;;;;;;27.80;7.38;;;14.20;99.90;;;;;;5012458;28;20525;-67
2021/08/28 00:44:50;;;;;;;15.63;6.53;;;14.20;99.90;;;;;;5022180;28;20025;-66
2021/08/28 00:47:16;;;;;;;18.85;7.32;;;14.20;99.90;;;;;;5015213;28;20052;-67
2021/08/28 00:49:45;;;;;;;17.83;7.50;;;14.30;99.90;;;;;;5023811;28;20396;-66
2021/08/28 00:52:11;;;;;;;19.65;6.80;;;14.30;99.90;;;;;;5024303;28;20399;-67
2021/08/28 00:54:38;;;;;;;23.15;7.55;;;14.30;99.90;;;;;;5011950;28;20030;-67
2021/08/28 00:57:08;;;;;;;20.60;7.75;;;14.30;99.90;;;;;;5024800;28;20069;-65
2021/08/28 00:59:33;;;;;;;28.90;8.70;;;14.30;99.90;;;;;;5028623;28;20034;-67
2021/08/28 01:01:59;;;;;;;29.20;8.70;;;14.30;99.90;;;;;;5022575;28;20484;-67
2021/08/28 01:04:28;;;;;;;22.33;9.02;;;14.30;99.90;;;;;;5023305;28;20042;-66
2021/08/28 01:07:08;;;;;;;29.10;7.35;;;14.30;99.90;;;;;;5024703;28;20025;-67
2021/08/28 01:09:35;;;;;;;23.48;7.47;;;14.30;99.90;;;;;;5017227;28;20405;-66
2021/08/28 01:12:12;;;;;;;28.15;8.75;;;14.40;99.90;;;;;;5017483;28;20105;-65
2021/08/28 01:14:47;;;;;;;23.27;8.45;;;14.30;99.90;;;;;;5025561;28;20025;-66
2021/08/28 01:17:13;;;;;;;;;;;14.40;99.90;;;;;;5020065;28;20026;-66
2021/08/28 01:19:47;;;;;;;20.67;8.15;;;14.30;99.90;;;;;;5022201;28;20008;-65
2021/08/28 01:22:16;;;;;;;26.05;9.40;;;14.30;99.90;;;;;;5016177;28;20061;-67
2021/08/28 01:24:45;;;;;;;24.40;9.55;;;14.30;99.90;;;;;;5016863;28;20412;-66
2021/08/28 01:27:34;;;;;;;24.67;8.65;;;14.30;99.90;;;;;;5017620;28;20541;-66
2021/08/28 01:30:00;;;;;;;23.75;9.32;;;14.30;99.90;;;;;;5015954;28;20453;-65
2021/08/28 01:32:27;;;;;;;26.17;9.68;;;14.30;99.90;;;;;;5022779;28;20061;-65
2021/08/28 01:34:56;;;;;;;22.05;9.55;;;14.40;99.90;;;;;;5028389;28;20039;-66
2021/08/28 01:37:21;;;;;;;20.92;10.50;;;14.40;99.90;;;;;;5026076;28;20104;-66
2021/08/28 01:39:48;;;;;;;30.52;12.02;;;14.40;99.90;;;;;;5024045;28;20125;-67
2021/08/28 01:42:15;;;;;;;27.80;12.52;;;14.40;99.90;;;;;;5027994;28;20025;-65
2021/08/28 01:44:45;;;;;;;34.75;15.05;;;14.50;99.90;;;;;;5027857;28;20033;-66
2021/08/28 01:47:12;;;;;;;32.25;14.15;;;14.40;99.90;;;;;;5023921;28;20428;-66
2021/08/28 01:49:39;;;;;;;36.97;13.98;;;14.50;99.90;;;;;;5028322;28;20075;-67
2021/08/28 01:52:05;;;;;;;33.70;14.85;;;14.50;99.90;;;;;;5023473;28;20448;-66
2021/08/28 01:54:31;;;;;;;37.92;15.18;;;14.50;99.90;;;;;;5031593;28;20038;-66
2021/08/28 01:56:57;;;;;;;36.47;14.90;;;14.50;99.90;;;;;;5022570;28;20502;-67
2021/08/28 01:59:23;;;;;;;34.95;14.68;;;14.60;99.90;;;;;;5023950;28;20022;-66
2021/08/28 02:01:48;;;;;;;41.33;14.63;;;14.50;99.90;;;;;;5019113;28;20593;-66
2021/08/28 02:04:14;;;;;;;27.30;14.35;;;14.60;99.90;;;;;;5029958;28;20061;-66
2021/08/28 02:07:00;;;;;;;35.78;14.85;;;14.50;99.90;;;;;;5016605;28;20096;-66
2021/08/28 02:09:31;;;;;;;36.42;14.18;;;14.60;99.90;;;;;;5022054;28;20496;-65
2021/08/28 02:12:15;;;;;;;25.98;13.35;;;14.50;99.90;;;;;;5021082;28;20060;-65
2021/08/28 02:14:46;;;;;;;29.73;14.10;;;14.50;99.90;;;;;;5030231;28;20108;-66
2021/08/28 02:17:13;;;;;;;30.40;14.75;;;14.60;99.90;;;;;;5027398;28;20744;-65
2021/08/28 02:19:43;;;;;;;29.17;13.73;;;14.60;99.90;;;;;;5025752;28;20052;-66
2021/08/28 02:22:15;;;;;;;25.33;14.07;;;14.60;99.90;;;;;;5023376;28;20053;-67
2021/08/28 02:24:44;;;;;;;28.27;13.75;;;14.60;99.90;;;;;;5024312;28;20025;-67
2021/08/28 02:27:29;;;;;;;30.15;14.68;;;14.60;99.90;;;;;;5023258;28;20032;-65
2021/08/28 02:30:04;;;;;;;31.83;14.45;;;14.50;99.90;;;;;;5020291;28;20033;-67
2021/08/28 02:32:31;;;;;;;33.38;16.63;;;14.60;99.90;;;;;;5020493;28;20508;-66
2021/08/28 02:34:58;;;;;;;34.50;18.23;;;14.60;99.90;;;;;;5024648;28;20099;-65
2021/08/28 02:37:24;;;;;;;41.42;20.08;;;14.60;99.90;;;;;;5031928;28;20065;-67
2021/08/28 02:39:51;;;;;;;41.10;20.52;;;14.60;99.90;;;;;;5026234;28;20112;-66
2021/08/28 02:42:17;;;;;;;45.05;21.40;;;14.60;99.90;;;;;;5022885;28;20032;-66
2021/08/28 02:44:44;;;;;;;43.50;19.20;;;14.60;99.90;;;;;;5016043;28;20436;-66
2021/08/28 02:47:11;;;;;;;41.65;21.48;;;14.60;99.90;;;;;;5023564;28;20397;-65
2021/08/28 02:49:39;;;;;;;43.95;23.10;;;14.60;99.90;;;;;;5032587;28;20022;-66
2021/08/28 02:52:06;;;;;;;41.45;22.33;;;14.60;99.90;;;;;;5022664;28;20029;-67
2021/08/28 02:54:33;;;;;;;44.33;22.33;;;14.60;99.90;;;;;;5026344;28;20056;-65
2021/08/28 02:56:59;;;;;;;63.38;24.45;;;14.60;99.90;;;;;;5022538;28;20025;-66
2021/08/28 02:59:27;;;;;;;50.05;24.38;;;14.60;99.90;;;;;;5029690;28;20030;-65
2021/08/28 03:01:54;;;;;;;51.42;23.58;;;14.60;99.90;;;;;;5029114;28;20099;-67
2021/08/28 03:04:22;;;;;;;46.38;23.42;;;14.60;99.90;;;;;;5024298;28;20018;-67
2021/08/28 03:06:49;;;;;;;48.13;26.10;;;14.60;99.90;;;;;;5021727;28;20085;-66
2021/08/28 03:09:18;;;;;;;74.32;31.23;;;14.60;99.90;;;;;;5019525;28;20030;-67
2021/08/28 03:11:44;;;;;;;62.67;31.27;;;14.60;99.90;;;;;;5028139;28;20029;-67
2021/08/28 03:14:11;;;;;;;65.80;30.92;;;14.60;99.90;;;;;;5025534;28;20033;-66
2021/08/28 03:16:41;;;;;;;64.93;31.10;;;14.60;99.90;;;;;;5021363;28;20035;-65
2021/08/28 03:19:09;;;;;;;71.68;33.67;;;14.70;99.90;;;;;;5027796;28;20037;-66
2021/08/28 03:24:12;;;;;;;80.40;35.30;;;14.60;99.90;;;;;;5028493;28;20056;-64
2021/08/28 03:26:39;;;;;;;81.88;39.80;;;14.60;99.90;;;;;;5032048;28;20040;-64
2021/08/28 03:29:05;;;;;;;82.22;37.80;;;14.60;99.90;;;;;;5032671;28;20047;-64
2021/08/28 03:31:31;;;;;;;88.43;40.47;;;14.70;99.90;;;;;;5033950;28;20025;-64
2021/08/28 03:34:00;;;;;;;84.15;40.90;;;14.60;99.90;;;;;;5035116;28;20100;-64
2021/08/28 03:36:26;;;;;;;101.28;41.35;;;14.60;99.90;;;;;;5031030;28;20032;-63
2021/08/28 03:38:52;;;;;;;92.03;39.28;;;14.60;99.90;;;;;;5032390;28;20096;-64
2021/08/28 03:41:18;;;;;;;91.97;41.92;;;14.60;99.90;;;;;;5033407;28;20013;-63
2021/08/28 03:43:45;;;;;;;95.07;40.17;;;14.60;99.90;;;;;;5032164;28;20045;-64
2021/08/28 03:46:11;;;;;;;98.90;40.45;;;14.60;99.90;;;;;;5031861;28;20062;-65
2021/08/28 03:48:40;;;;;;;89.65;39.65;;;14.60;99.90;;;;;;5034929;28;20033;-63
2021/08/28 03:51:07;;;;;;;98.38;40.72;;;14.60;99.90;;;;;;5031447;28;20098;-64
2021/08/28 03:53:33;;;;;;;102.22;40.05;;;14.60;99.90;;;;;;5030629;28;20431;-64
2021/08/28 03:55:59;;;;;;;107.30;41.63;;;14.60;99.90;;;;;;5029058;28;20052;-64
2021/08/28 03:58:25;;;;;;;92.00;40.58;;;14.50;99.90;;;;;;5035391;28;20481;-64
2021/08/28 04:00:51;;;;;;;92.47;41.45;;;14.60;99.90;;;;;;5031107;28;20040;-64
2021/08/28 04:03:18;;;;;;;110.85;42.13;;;14.60;99.90;;;;;;5032110;28;20075;-64
2021/08/28 04:05:43;;;;;;;102.88;42.20;;;14.60;99.90;;;;;;5031043;28;20030;-65
2021/08/28 04:08:10;;;;;;;95.22;39.38;;;14.60;99.90;;;;;;5030354;28;20026;-64
2021/08/28 04:10:35;;;;;;;97.70;40.53;;;14.50;99.90;;;;;;5030002;28;20048;-64
2021/08/28 04:13:01;;;;;;;109.60;41.25;;;14.60;99.90;;;;;;5032637;28;20519;-64
2021/08/28 04:15:27;;;;;;;103.25;42.45;;;14.60;99.90;;;;;;5038762;28;20026;-63
2021/08/28 04:17:53;;;;;;;98.47;39.53;;;14.60;99.90;;;;;;5032876;28;20025;-64
2021/08/28 04:20:18;;;;;;;90.40;38.20;;;14.60;99.90;;;;;;5033744;28;20508;-64
2021/08/28 04:22:44;;;;;;;88.13;39.08;;;14.60;99.90;;;;;;5030946;28;20029;-63
2021/08/28 04:25:10;;;;;;;90.28;38.15;;;14.60;99.90;;;;;;5031181;28;20120;-64
2021/08/28 04:27:36;;;;;;;96.15;40.00;;;14.60;99.90;;;;;;5034455;28;20029;-63
2021/08/28 04:30:04;;;;;;;84.57;39.58;;;14.60;99.90;;;;;;5036783;28;20075;-64
2021/08/28 04:32:29;;;;;;;80.57;39.33;;;14.60;99.90;;;;;;5031131;28;20116;-64
2021/08/28 04:34:55;;;;;;;88.32;39.92;;;14.60;99.90;;;;;;5030724;28;20537;-63
2021/08/28 04:37:20;;;;;;;89.70;40.10;;;14.60;99.90;;;;;;5033324;28;20057;-63
2021/08/28 04:39:46;;;;;;;93.28;40.50;;;14.50;99.90;;;;;;5031429;28;20477;-62
2021/08/28 04:42:11;;;;;;;88.00;42.65;;;14.60;99.90;;;;;;5030644;28;20033;-64
2021/08/28 04:44:37;;;;;;;86.07;38.78;;;14.60;99.90;;;;;;5030241;28;20663;-63
2021/08/28 04:47:03;;;;;;;99.20;39.90;;;14.60;99.90;;;;;;5030747;28;20045;-64
2021/08/28 04:49:29;;;;;;;88.82;39.40;;;14.60;99.90;;;;;;5034501;28;20039;-63
2021/08/28 04:51:54;;;;;;;97.93;41.10;;;14.60;99.90;;;;;;5030518;28;20028;-64
2021/08/28 04:54:20;;;;;;;87.30;40.58;;;14.70;99.90;;;;;;5033690;28;20059;-62
2021/08/28 04:56:46;;;;;;;86.07;39.17;;;14.60;99.90;;;;;;5028673;28;20033;-63
2021/08/28 04:59:11;;;;;;;79.80;38.28;;;14.60;99.90;;;;;;5030199;28;20025;-63
2021/08/28 05:01:37;;;;;;;79.93;37.47;;;14.60;99.90;;;;;;5030617;28;20021;-64
2021/08/28 05:04:02;;;;;;;74.43;36.42;;;14.60;99.90;;;;;;5030922;28;20036;-64
2021/08/28 05:06:28;;;;;;;71.60;35.83;;;14.60;99.90;;;;;;5029466;28;20017;-65
2021/08/28 05:08:53;;;;;;;75.13;36.85;;;14.60;99.90;;;;;;5034465;28;20378;-64
2021/08/28 05:11:19;;;;;;;79.10;37.88;;;14.70;99.90;;;;;;5030893;28;20034;-64
2021/08/28 05:13:45;;;;;;;72.72;36.22;;;14.70;99.90;;;;;;5030236;28;20052;-63
2021/08/28 05:16:11;;;;;;;74.40;36.97;;;14.70;99.90;;;;;;5030508;28;20033;-64
2021/08/28 05:18:36;;;;;;;78.22;35.75;;;14.70;99.90;;;;;;5033304;28;20040;-64
2021/08/28 05:21:02;;;;;;;64.05;34.40;;;14.70;99.90;;;;;;5036401;28;20037;-65
2021/08/28 05:23:28;;;;;;;65.03;35.83;;;14.70;99.90;;;;;;5027214;28;20037;-64
2021/08/28 05:25:53;;;;;;;64.00;34.47;;;14.70;99.90;;;;;;5030808;28;20541;-62
2021/08/28 05:28:19;;;;;;;66.35;35.25;;;14.70;99.90;;;;;;5032018;28;20026;-63
2021/08/28 05:30:44;;;;;;;62.67;33.28;;;14.70;99.90;;;;;;5033714;28;20030;-64
2021/08/28 05:33:10;;;;;;;60.55;31.52;;;14.70;99.90;;;;;;5028125;28;20071;-65
2021/08/28 05:35:36;;;;;;;56.20;30.52;;;14.70;99.90;;;;;;5030023;28;20109;-63
2021/08/28 05:38:02;;;;;;;57.40;29.63;;;14.80;99.90;;;;;;5030694;28;20025;-65
2021/08/28 05:40:27;;;;;;;49.90;28.23;;;14.80;99.90;;;;;;5038015;28;20135;-64
2021/08/28 05:42:53;;;;;;;49.40;30.70;;;14.80;99.90;;;;;;5030501;28;20531;-63
2021/08/28 05:45:19;;;;;;;53.58;29.23;;;14.80;99.90;;;;;;5032919;28;20025;-64
2021/08/28 05:47:44;;;;;;;49.30;28.27;;;14.90;99.90;;;;;;5028440;28;20040;-64
2021/08/28 05:50:10;;;;;;;50.00;30.50;;;14.90;99.90;;;;;;5034352;28;20041;-63
2021/08/28 05:52:36;;;;;;;50.60;29.77;;;14.80;99.90;;;;;;5029642;28;20378;-64
2021/08/28 05:55:01;;;;;;;48.08;28.92;;;14.90;99.90;;;;;;5029646;28;20024;-64
2021/08/28 05:57:27;;;;;;;51.58;31.65;;;14.90;99.90;;;;;;5032112;28;20038;-64
2021/08/28 05:59:53;;;;;;;54.03;30.65;;;14.90;99.90;;;;;;5030252;28;20068;-63
2021/08/28 06:02:18;;;;;;;43.30;28.35;;;14.90;99.90;;;;;;5028986;28;20099;-65
2021/08/28 06:04:44;;;;;;;52.40;30.27;;;14.90;99.90;;;;;;5035045;28;20080;-64
2021/08/28 06:07:10;;;;;;;47.50;27.60;;;14.90;99.90;;;;;;5030467;28;20079;-64
2021/08/28 06:09:35;;;;;;;49.85;31.02;;;14.90;99.90;;;;;;5031979;28;20033;-65
2021/08/28 06:12:01;;;;;;;50.13;31.38;;;15.00;99.90;;;;;;5029668;28;20021;-64
2021/08/28 06:14:26;;;;;;;54.13;32.40;;;15.00;99.90;;;;;;5029814;28;20578;-64
2021/08/28 06:16:52;;;;;;;61.17;34.47;;;14.90;99.90;;;;;;5030523;28;20522;-64
2021/08/28 06:19:17;;;;;;;56.75;32.28;;;15.00;99.90;;;;;;5029660;28;20032;-62
2021/08/28 06:21:43;;;;;;;61.67;34.05;;;15.10;99.90;;;;;;5028907;28;20467;-63
2021/08/28 06:24:09;;;;;;;64.70;34.72;;;15.10;99.90;;;;;;5031023;28;20042;-64
2021/08/28 06:26:34;;;;;;;56.75;32.03;;;15.10;99.90;;;;;;5030251;28;20296;-64
2021/08/28 06:29:00;;;;;;;55.78;32.10;;;15.10;99.90;;;;;;5031920;28;20030;-62
2021/08/28 06:31:25;;;;;;;53.38;32.10;;;15.10;99.90;;;;;;5032680;28;20029;-63
2021/08/28 06:33:51;;;;;;;50.92;28.40;;;15.10;99.90;;;;;;5033514;28;20492;-63
2021/08/28 06:36:17;;;;;;;47.85;27.00;;;15.10;99.90;;;;;;5033857;28;20503;-64
2021/08/28 06:38:42;;;;;;;41.38;26.13;;;15.10;99.90;;;;;;5033031;28;20025;-64
2021/08/28 06:41:08;;;;;;;48.67;26.25;;;15.10;99.90;;;;;;5030912;28;20439;-63
2021/08/28 06:43:33;;;;;;;39.40;23.70;;;15.00;99.90;;;;;;5032950;28;20037;-64
2021/08/28 06:45:59;;;;;;;39.55;23.33;;;15.00;99.90;;;;;;5030789;28;20445;-63
2021/08/28 06:48:25;;;;;;;46.80;24.58;;;15.00;99.90;;;;;;5029944;28;20033;-63
2021/08/28 06:50:50;;;;;;;39.25;23.88;;;15.00;99.90;;;;;;5030807;28;20108;-63
2021/08/28 06:53:16;;;;;;;43.22;23.83;;;15.00;99.90;;;;;;5031577;28;20408;-64
2021/08/28 06:55:42;;;;;;;34.72;21.70;;;15.00;99.90;;;;;;5032086;28;20029;-64
2021/08/28 06:58:08;;;;;;;27.42;17.10;;;15.00;99.90;;;;;;5030016;28;20026;-63
2021/08/28 07:00:34;;;;;;;29.27;15.68;;;15.10;99.90;;;;;;5028126;28;20033;-59
2021/08/28 07:02:59;;;;;;;27.98;16.55;;;15.10;99.90;;;;;;5028891;28;20078;-64
2021/08/28 07:05:25;;;;;;;24.77;15.93;;;15.10;99.90;;;;;;5027848;28;20476;-63
2021/08/28 07:07:50;;;;;;;27.13;17.40;;;15.20;99.90;;;;;;5034078;28;20033;-64
2021/08/28 07:10:16;;;;;;;25.70;16.13;;;15.30;99.90;;;;;;5026673;28;20030;-64
2021/08/28 07:12:43;;;;;;;32.20;20.83;;;15.30;99.90;;;;;;5031514;28;20026;-63
2021/08/28 07:15:09;;;;;;;30.42;21.38;;;15.40;99.90;;;;;;5029555;28;20463;-65
2021/08/28 07:17:35;;;;;;;43.00;25.35;;;15.40;99.90;;;;;;5028971;28;20504;-64
2021/08/28 07:20:01;;;;;;;36.25;25.05;;;15.50;99.90;;;;;;5035002;28;20039;-65
2021/08/28 07:22:27;;;;;;;39.78;27.80;;;15.40;99.90;;;;;;5031651;28;20068;-62
2021/08/28 07:24:52;;;;;;;39.42;27.25;;;15.40;99.90;;;;;;5032508;28;20626;-63
2021/08/28 07:27:22;;;;;;;43.50;29.38;;;15.40;99.90;;;;;;5028162;28;20072;-61
2021/08/28 07:29:48;;;;;;;44.55;28.75;;;15.40;99.90;;;;;;5031152;28;20026;-62
2021/08/28 07:32:14;;;;;;;47.13;30.20;;;15.40;99.90;;;;;;5030287;28;20029;-64
2021/08/28 07:34:39;;;;;;;45.88;28.55;;;15.40;99.90;;;;;;5025368;28;20048;-64
2021/08/28 07:37:06;;;;;;;47.85;32.05;;;15.50;99.90;;;;;;5029413;28;20100;-65
2021/08/28 07:39:33;;;;;;;49.88;30.65;;;15.40;99.90;;;;;;5032448;28;20032;-65
2021/08/28 07:41:58;;;;;;;49.97;33.03;;;15.50;99.90;;;;;;5030819;28;20512;-61
2021/08/28 07:44:24;;;;;;;49.88;33.03;;;15.50;99.90;;;;;;5031765;28;20021;-62
2021/08/28 07:46:49;;;;;;;48.03;33.75;;;15.50;99.90;;;;;;5030170;28;20017;-65
2021/08/28 07:49:15;;;;;;;49.95;34.00;;;15.50;99.90;;;;;;5031539;28;20084;-65
2021/08/28 07:51:41;;;;;;;56.53;36.28;;;15.50;99.90;;;;;;5034400;28;20381;-63
2021/08/28 07:54:06;;;;;;;63.10;37.90;;;15.60;99.90;;;;;;5025232;28;20037;-63
2021/08/28 07:56:32;;;;;;;60.20;39.25;;;15.60;99.90;;;;;;5024309;28;20455;-65
2021/08/28 07:58:58;;;;;;;61.25;38.63;;;15.60;99.90;;;;;;5029099;28;20033;-63
2021/08/28 08:01:23;;;;;;;63.47;37.95;;;15.60;99.90;;;;;;5026440;28;20108;-65
2021/08/28 08:03:49;;;;;;;71.85;39.60;;;15.60;99.90;;;;;;5031049;28;20109;-62
2021/08/28 08:06:14;;;;;;;56.88;37.95;;;15.70;99.90;;;;;;5028993;28;20493;-64
2021/08/28 08:08:40;;;;;;;62.42;37.67;;;15.80;99.90;;;;;;5031221;28;20049;-65
2021/08/28 08:11:06;;;;;;;63.33;38.00;;;15.80;99.90;;;;;;5030795;28;20047;-64
2021/08/28 08:13:32;;;;;;;59.83;35.25;;;15.90;99.90;;;;;;5031365;28;20029;-64
2021/08/28 08:15:57;;;;;;;49.85;33.50;;;15.90;99.90;;;;;;5033591;28;20029;-63
2021/08/28 08:18:23;;;;;;;47.90;31.85;;;16.00;99.90;;;;;;5028479;28;20118;-62
2021/08/28 08:20:48;;;;;;;42.10;27.38;;;16.10;99.90;;;;;;5031565;28;20079;-64
2021/08/28 08:23:14;;;;;;;38.20;26.58;;;16.10;99.90;;;;;;5030048;28;20026;-64
2021/08/28 08:25:39;;;;;;;38.97;22.67;;;16.10;99.90;;;;;;5031462;28;20029;-63
2021/08/28 08:28:05;;;;;;;32.60;20.80;;;16.10;99.90;;;;;;5022457;28;20034;-62
2021/08/28 08:30:31;;;;;;;27.90;20.75;;;16.20;99.90;;;;;;5025103;28;20087;-64
2021/08/28 08:32:57;;;;;;;27.45;20.17;;;16.20;99.90;;;;;;5022895;28;21184;-64
2021/08/28 08:35:23;;;;;;;27.42;18.40;;;16.30;99.90;;;;;;5023790;28;20082;-64
2021/08/28 08:37:48;;;;;;;27.75;17.17;;;16.30;99.90;;;;;;5024015;28;20041;-65
2021/08/28 08:40:14;;;;;;;21.73;14.68;;;16.30;99.90;;;;;;5022975;28;20038;-63
2021/08/28 08:42:41;;;;;;;27.63;15.65;;;16.30;99.90;;;;;;5023839;28;20029;-64
2021/08/28 08:45:06;;;;;;;22.38;15.27;;;16.40;99.90;;;;;;5023341;28;20029;-62
2021/08/28 08:47:36;;;;;;;21.05;14.85;;;16.40;99.90;;;;;;5025335;28;20026;-65
2021/08/28 08:50:02;;;;;;;20.25;15.13;;;16.30;99.90;;;;;;5024351;28;20799;-64
2021/08/28 08:52:31;;;;;;;19.17;14.65;;;16.30;99.90;;;;;;5021809;28;20451;-64
2021/08/28 08:54:57;;;;;;;26.77;16.67;;;16.30;99.90;;;;;;5019222;28;20037;-65
2021/08/28 08:57:22;;;;;;;24.60;16.20;;;16.40;99.90;;;;;;5017633;28;20033;-65
2021/08/28 08:59:48;;;;;;;25.10;14.88;;;16.60;99.90;;;;;;5023616;28;20026;-63
2021/08/28 09:02:14;;;;;;;25.50;15.60;;;16.80;99.90;;;;;;5028235;28;20029;-63
2021/08/28 09:04:40;;;;;;;27.77;14.13;;;17.00;99.90;;;;;;5024831;28;20053;-63
2021/08/28 09:07:06;;;;;;;25.33;14.68;;;17.10;99.90;;;;;;5019934;28;20040;-64
2021/08/28 09:09:31;;;;;;;23.95;13.98;;;17.30;99.90;;;;;;5019272;28;20025;-62
2021/08/28 09:12:02;;;;;;;26.55;13.90;;;17.30;99.90;;;;;;5018575;28;20424;-62
2021/08/28 09:14:28;;;;;;;20.30;13.68;;;17.20;99.90;;;;;;5021425;28;20041;-61
2021/08/28 09:16:54;;;;;;;24.63;13.10;;;17.10;99.90;;;;;;5021675;28;20102;-65
2021/08/28 09:19:40;;;;;;;24.38;12.40;;;17.10;99.90;;;;;;5023344;28;20450;-65
2021/08/28 09:22:20;;;;;;;19.38;13.35;;;17.10;99.90;;;;;;5024654;28;20025;-65
2021/08/28 09:24:47;;;;;;;20.08;13.15;;;17.10;99.90;;;;;;5020770;28;20072;-62
2021/08/28 09:27:56;;;;;;;19.13;13.38;;;17.00;99.90;;;;;;5023320;28;20088;-61
2021/08/28 09:30:28;;;;;;;21.45;13.55;;;17.00;99.90;;;;;;5019122;28;20571;-61
2021/08/28 09:32:59;;;;;;;23.58;12.65;;;16.90;99.90;;;;;;5025626;28;20395;-63
2021/08/28 09:35:32;;;;;;;19.73;13.23;;;16.80;99.90;;;;;;5022169;28;20712;-63
2021/08/28 09:38:01;;;;;;;16.83;12.87;;;16.80;99.90;;;;;;5025267;28;20033;-63
2021/08/28 09:40:33;;;;;;;22.08;14.35;;;16.70;99.90;;;;;;5025792;28;20073;-63
2021/08/28 09:43:02;;;;;;;22.38;13.20;;;16.80;99.90;;;;;;5025292;28;20025;-62
2021/08/28 09:45:28;;;;;;;20.45;13.88;;;16.90;99.90;;;;;;5023471;28;20306;-64
2021/08/28 09:47:55;;;;;;;18.85;13.52;;;17.00;99.90;;;;;;5024063;28;20676;-63
2021/08/28 09:50:29;;;;;;;20.50;13.48;;;17.10;99.90;;;;;;5024025;28;20029;-65
2021/08/28 09:52:59;;;;;;;18.83;13.32;;;17.30;99.90;;;;;;5023942;28;20482;-65
2021/08/28 09:55:24;;;;;;;21.08;12.65;;;17.40;99.90;;;;;;5023382;28;20037;-64
2021/08/28 09:57:51;;;;;;;16.33;12.35;;;17.40;99.90;;;;;;5023404;28;20088;-63
2021/08/28 10:00:17;;;;;;;22.48;14.32;;;17.50;99.90;;;;;;5024058;28;20033;-64
2021/08/28 10:03:02;;;;;;;19.58;11.57;;;17.50;99.90;;;;;;5025261;28;20076;-64
2021/08/28 10:05:28;;;;;;;11.65;10.40;;;17.60;99.90;;;;;;5028692;28;20033;-64
2021/08/28 10:07:57;;;;;;;14.50;10.98;;;17.70;99.90;;;;;;5028271;28;20037;-62
2021/08/28 10:10:23;;;;;;;16.45;10.10;;;17.80;99.90;;;;;;5028267;28;20034;-64
2021/08/28 10:12:49;;;;;;;18.73;10.40;;;17.80;99.90;;;;;;5027405;28;20037;-64
2021/08/28 10:15:15;;;;;;;14.45;9.80;;;17.80;99.90;;;;;;5024801;28;20126;-65
2021/08/28 10:17:43;;;;;;;14.05;9.85;;;18.00;99.90;;;;;;5024494;28;20365;-65
2021/08/28 10:20:11;;;;;;;16.02;9.65;;;18.10;99.90;;;;;;5027287;28;20037;-65
2021/08/28 10:22:39;;;;;;;15.65;10.32;;;18.30;99.90;;;;;;5024493;28;20426;-61
2021/08/28 10:25:08;;;;;;;13.80;9.45;;;18.30;99.90;;;;;;5022883;28;20455;-64
2021/08/28 10:27:33;;;;;;;15.00;8.88;;;18.50;99.90;;;;;;5021457;28;20060;-64
2021/08/28 10:30:00;;;;;;;11.48;8.32;;;18.60;99.90;;;;;;5024032;28;20110;-64
2021/08/28 10:32:25;;;;;;;16.95;8.65;;;18.80;99.90;;;;;;5025317;28;20053;-60
2021/08/28 10:34:51;;;;;;;11.38;8.68;;;18.90;99.90;;;;;;5023679;28;20034;-64
2021/08/28 10:37:18;;;;;;;10.15;7.38;;;18.90;99.90;;;;;;5022083;28;20056;-64
2021/08/28 10:39:47;;;;;;;9.68;7.40;;;18.90;99.90;;;;;;5026423;28;20107;-63
2021/08/28 10:42:14;;;;;;;10.93;7.00;;;18.90;99.90;;;;;;5027797;28;20158;-65
2021/08/28 10:44:40;;;;;;;10.38;7.10;;;18.80;99.90;;;;;;5026344;28;20112;-65
2021/08/28 10:47:20;;;;;;;14.55;8.60;;;18.70;99.90;;;;;;5024291;28;20454;-65
2021/08/28 10:49:50;;;;;;;11.20;7.85;;;18.70;99.90;;;;;;5021708;28;20504;-64
2021/08/28 10:52:24;;;;;;;12.02;8.30;;;18.60;99.90;;;;;;5022940;28;20034;-65
2021/08/28 10:55:05;;;;;;;12.25;9.30;;;18.60;99.90;;;;;;5025845;28;20032;-64
2021/08/28 10:57:30;;;;;;;13.82;8.88;;;18.70;99.90;;;;;;5024288;28;20278;-64
2021/08/28 11:00:00;;;;;;;12.23;8.57;;;18.80;99.90;;;;;;5023794;28;20092;-65
2021/08/28 11:02:50;;;;;;;11.85;8.23;;;18.90;99.90;;;;;;5026975;28;20021;-65
2021/08/28 11:05:36;;;;;;;17.67;7.78;;;19.00;99.90;;;;;;5021569;28;20014;-62
2021/08/28 11:08:18;;;;;;;13.05;6.45;;;19.00;99.90;;;;;;5022527;28;20045;-64
2021/08/28 11:11:04;;;;;;;14.32;6.50;;;18.90;99.90;;;;;;5021243;28;20064;-65
2021/08/28 11:14:10;;;;;;;9.85;5.75;;;19.00;99.90;;;;;;5009780;28;20042;-65
2021/08/28 11:16:44;;;;;;;12.52;5.60;;;19.20;99.90;;;;;;4980874;28;20026;-63
2021/08/28 11:19:31;;;;;;;;;;;19.50;99.90;;;;;;4980121;28;20019;-62
2021/08/28 11:21:56;;;;;;;9.90;5.80;;;19.80;99.90;;;;;;5008559;28;19951;-65
2021/08/28 11:24:27;;;;;;;10.70;5.85;;;19.90;99.90;;;;;;5019378;28;20049;-65
2021/08/28 11:26:57;;;;;;;8.85;6.10;;;19.80;99.90;;;;;;5022639;28;20044;-64
2021/08/28 11:29:25;;;;;;;8.82;5.72;;;19.60;99.90;;;;;;5022071;28;20049;-64
2021/08/28 11:32:10;;;;;;;10.65;5.50;;;19.50;99.90;;;;;;5022359;28;20124;-65
2021/08/28 11:34:46;;;;;;;7.40;5.63;;;19.50;99.90;;;;;;5025246;28;20029;-64
2021/08/28 11:37:23;;;;;;;8.25;5.78;;;19.40;99.90;;;;;;5020503;28;20033;-63
2021/08/28 11:39:49;;;;;;;10.27;5.68;;;19.40;99.90;;;;;;5022409;28;20040;-64
2021/08/28 11:42:15;;;;;;;6.80;5.50;;;19.50;99.90;;;;;;5026448;28;20140;-64
2021/08/28 11:44:46;;;;;;;13.38;6.15;;;19.40;99.90;;;;;;5025142;28;20018;-63
2021/08/28 11:47:12;;;;;;;9.98;5.82;;;19.40;99.90;;;;;;5024562;28;20030;-62
2021/08/28 11:49:41;;;;;;;12.05;6.30;;;19.30;99.90;;;;;;5014844;28;20416;-63
2021/08/28 11:52:07;;;;;;;12.88;6.45;;;19.30;99.90;;;;;;5015395;28;20033;-64
2021/08/28 11:54:33;;;;;;;10.27;6.70;;;19.40;99.90;;;;;;5009777;28;20116;-64
2021/08/28 11:56:58;;;;;;;9.73;6.10;;;19.30;99.90;;;;;;5017202;28;20033;-61
2021/08/28 11:59:40;;;;;;;11.18;6.90;;;19.40;99.90;;;;;;5012784;28;20034;-64
2021/08/28 12:02:07;;;;;;;11.23;6.88;;;19.40;99.90;;;;;;5015584;28;20034;-63
2021/08/28 12:04:34;;;;;;;10.18;6.57;;;19.50;99.90;;;;;;5007327;28;20072;-64
2021/08/28 12:07:00;;;;;;;11.07;6.50;;;19.60;99.90;;;;;;5014877;28;20030;-62
2021/08/28 12:09:26;;;;;;;10.20;6.22;;;19.60;99.90;;;;;;5018856;28;20041;-60
2021/08/28 12:11:54;;;;;;;9.15;6.13;;;19.60;99.90;;;;;;5020231;28;20033;-63
2021/08/28 12:14:21;;;;;;;9.73;6.07;;;19.60;99.90;;;;;;5011239;28;20696;-64
2021/08/28 12:16:48;;;;;;;8.60;5.53;;;19.80;99.90;;;;;;5006537;28;20068;-63
2021/08/28 12:19:19;;;;;;;9.23;5.32;;;19.60;99.90;;;;;;5014816;28;20123;-60
2021/08/28 12:21:47;;;;;;;6.95;5.50;;;19.70;99.90;;;;;;5019753;28;20029;-63
2021/08/28 12:24:20;;;;;;;8.70;5.63;;;19.90;99.90;;;;;;5016777;28;20042;-66
2021/08/28 12:26:54;;;;;;;12.60;5.30;;;20.20;99.90;;;;;;5018320;28;20896;-64
2021/08/28 12:29:22;;;;;;;7.13;5.15;;;20.60;99.90;;;;;;5014042;28;20104;-63
2021/08/28 12:31:57;;;;;;;8.52;4.60;;;21.00;99.90;;;;;;5016353;28;20033;-63
2021/08/28 12:34:24;;;;;;;6.13;3.45;;;21.20;99.90;;;;;;5024452;28;20403;-64
2021/08/28 12:36:51;;;;;;;5.50;3.42;;;21.30;99.90;;;;;;5010345;28;20045;-63